Marree, Australia
Current Conditions -  °F | °C
As of 9:00 PM on Sunday 21 Dec 2014 (Local Time) from YOLD Reporting Station
Clear Clear  
Wind Chill: 88°   Ceiling: Unl
Heat Index: 88°   Visibility: 6mi
Dew Point: 43°   Wind: 13mph
Humidity: 21%   Direction: 150°SSE
Pressure: 29.74"   Gusts: NA
Location:  29.65°S, 138.07°E
Report Text: YOLD 211100Z AUTO 15011KT 9999 // NCD 31/06 Q1007
Loading
Personal Weather Stations






























Interactive Weather Map New forecast layout! Learn more

10-Day Weather Forecast

Advertisements
Track Severe Weather on mobile